Time;durP1;ratioP1;P1;durP2;ratioP2;P2;SDS_P1;SDS_P2;PMS_P1;PMS_P2;Temp;Humidity;BMP_temperature;BMP_pressure;BME280_temperature;BME280_humidity;BME280_pressure;Samples;Min_cycle;Max_cycle;Signal;HPM_P1;HPM_P2
2021/08/26 00:00:51;;;;;;;13.20;9.47;;;15.60;99.90;;;;;;4941509;29;20509;-78
2021/08/26 00:06:14;;;;;;;13.03;11.63;;;15.60;99.90;;;;;;4924819;29;20437;-78
2021/08/26 00:08:45;;;;;;;13.30;10.40;;;15.50;99.90;;;;;;4921411;29;20447;-78
2021/08/26 00:11:13;;;;;;;12.20;10.60;;;15.50;99.90;;;;;;4936343;29;20447;-78
2021/08/26 00:13:45;;;;;;;15.47;8.80;;;15.50;99.90;;;;;;4941879;29;20466;-78
2021/08/26 00:16:18;;;;;;;12.27;8.73;;;15.50;99.90;;;;;;4943120;29;20424;-78
2021/08/26 00:18:47;;;;;;;15.13;9.43;;;15.50;99.90;;;;;;4923504;29;20439;-77
2021/08/26 00:21:15;;;;;;;11.27;6.87;;;15.50;99.90;;;;;;4941301;29;20447;-77
2021/08/26 00:23:45;;;;;;;11.80;8.57;;;15.50;99.90;;;;;;4924122;29;20511;-79
2021/08/26 00:26:13;;;;;;;15.40;9.43;;;15.50;99.90;;;;;;4910948;29;20439;-78
2021/08/26 00:28:41;;;;;;;14.13;11.63;;;15.50;99.90;;;;;;4906250;29;20434;-79
2021/08/26 00:31:09;;;;;;;15.50;10.47;;;15.50;99.90;;;;;;4906068;29;20814;-79
2021/08/26 00:33:38;;;;;;;13.13;9.33;;;15.50;99.90;;;;;;4907539;29;20475;-79
2021/08/26 00:36:06;;;;;;;16.80;12.43;;;15.50;99.90;;;;;;4942305;29;20444;-79
2021/08/26 00:38:35;;;;;;;14.60;8.53;;;15.50;99.90;;;;;;4942108;29;20455;-79
2021/08/26 00:41:05;;;;;;;16.13;9.73;;;15.50;99.90;;;;;;4928606;29;20805;-77
2021/08/26 00:43:33;;;;;;;16.23;8.60;;;15.50;99.90;;;;;;4920364;29;20882;-78
2021/08/26 00:46:03;;;;;;;18.37;10.33;;;15.50;99.90;;;;;;4921251;29;20939;-77
2021/08/26 00:48:31;;;;;;;15.13;8.60;;;15.50;99.90;;;;;;4923372;29;20472;-78
2021/08/26 00:51:01;;;;;;;18.30;10.90;;;15.50;99.90;;;;;;4911152;29;20548;-77
2021/08/26 00:53:29;;;;;;;16.73;7.72;;;15.50;99.90;;;;;;4924709;29;20453;-78
2021/08/26 00:55:57;;;;;;;21.50;10.90;;;15.50;99.90;;;;;;4921944;29;20199;-78
2021/08/26 00:58:29;;;;;;;11.23;6.97;;;15.50;99.90;;;;;;4923949;29;20449;-79
2021/08/26 01:01:03;;;;;;;13.75;5.32;;;15.40;99.90;;;;;;4941727;29;20499;-79
2021/08/26 01:03:41;;;;;;;11.20;7.40;;;15.50;99.90;;;;;;4939793;29;20220;-76
2021/08/26 01:06:15;;;;;;;18.27;8.83;;;15.50;99.90;;;;;;4939341;29;20432;-77
2021/08/26 01:08:52;;;;;;;11.53;7.83;;;15.50;99.90;;;;;;4922652;29;20452;-79
2021/08/26 01:11:23;;;;;;;15.00;10.27;;;15.50;99.90;;;;;;4926720;29;20523;-79
2021/08/26 01:14:01;;;;;;;17.27;10.07;;;15.40;99.90;;;;;;4904190;29;20480;-76
2021/08/26 01:16:29;;;;;;;13.73;8.20;;;15.40;99.90;;;;;;4906154;29;20935;-78
2021/08/26 01:18:57;;;;;;;42.10;10.30;;;15.40;99.90;;;;;;4932527;29;20419;-77
2021/08/26 01:21:26;;;;;;;15.20;10.43;;;15.40;99.90;;;;;;4922782;29;20447;-80
2021/08/26 01:23:58;;;;;;;11.63;9.27;;;15.30;99.90;;;;;;4921469;29;20525;-78
2021/08/26 01:26:30;;;;;;;10.50;7.70;;;15.30;99.90;;;;;;4919956;29;20408;-77
2021/08/26 01:29:01;;;;;;;13.00;8.30;;;15.30;99.90;;;;;;4919564;29;20492;-77
2021/08/26 01:31:30;;;;;;;13.97;7.67;;;15.30;99.90;;;;;;4919841;29;20917;-77
2021/08/26 01:33:59;;;;;;;15.48;5.70;;;15.30;99.90;;;;;;4911623;29;20570;-76
2021/08/26 01:36:29;;;;;;;11.57;7.13;;;15.30;99.90;;;;;;4904055;29;20230;-77
2021/08/26 01:39:09;;;;;;;10.17;7.33;;;15.30;99.90;;;;;;4903469;29;20523;-76
2021/08/26 01:41:44;;;;;;;12.87;6.90;;;15.30;99.90;;;;;;4903583;29;20463;-77
2021/08/26 02:26:35;;;;;;;17.73;12.23;;;14.90;99.90;;;;;;4818768;29;20539;-76
2021/08/26 02:29:04;;;;;;;14.70;10.23;;;14.90;99.90;;;;;;4885178;29;20468;-77
2021/08/26 02:31:32;;;;;;;14.50;8.00;;;14.90;99.90;;;;;;4936903;29;21071;-76
2021/08/26 02:34:00;;;;;;;12.23;6.80;;;14.80;99.90;;;;;;4919712;29;20578;-76
2021/08/26 02:36:28;;;;;;;12.50;7.80;;;14.80;99.90;;;;;;4919924;29;20433;-76
2021/08/26 02:38:56;;;;;;;13.47;6.60;;;14.80;99.90;;;;;;4919708;29;20807;-75
2021/08/26 02:41:25;;;;;;;11.90;6.80;;;14.80;99.90;;;;;;4934125;29;20455;-76
2021/08/26 02:43:54;;;;;;;10.83;6.67;;;14.80;99.90;;;;;;4956183;29;20823;-76
2021/08/26 02:46:22;;;;;;;12.03;7.43;;;14.80;99.90;;;;;;4938834;29;20986;-76
2021/08/26 02:48:50;;;;;;;13.43;7.90;;;14.80;99.90;;;;;;4933193;29;20957;-76
2021/08/26 02:51:19;;;;;;;13.53;8.37;;;14.80;99.90;;;;;;4919758;29;20531;-76
2021/08/26 02:53:47;;;;;;;18.50;9.40;;;14.80;99.90;;;;;;4931495;29;20565;-76
2021/08/26 02:56:15;;;;;;;12.13;6.77;;;14.70;99.90;;;;;;4922632;29;20831;-76
2021/08/26 02:58:43;;;;;;;15.30;8.20;;;14.70;99.90;;;;;;4919722;29;20544;-76
2021/08/26 03:01:12;;;;;;;13.63;8.50;;;14.70;99.90;;;;;;4929194;29;20421;-76
2021/08/26 03:03:41;;;;;;;10.17;6.00;;;14.70;99.90;;;;;;4955865;29;20458;-76
2021/08/26 03:06:09;;;;;;;10.38;6.22;;;14.70;99.90;;;;;;4938384;29;20448;-76
2021/08/26 03:08:37;;;;;;;10.40;6.70;;;14.70;99.90;;;;;;4952135;29;20199;-76
2021/08/26 03:11:05;;;;;;;12.27;7.63;;;14.60;99.90;;;;;;4938328;29;20485;-76
2021/08/26 03:13:33;;;;;;;13.02;4.93;;;14.60;99.90;;;;;;4937345;29;20546;-76
2021/08/26 03:16:05;;;;;;;10.53;6.57;;;14.70;99.90;;;;;;4944445;29;20299;-76
2021/08/26 03:18:35;;;;;;;14.13;6.50;;;14.70;99.90;;;;;;4919144;29;20463;-76
2021/08/26 03:21:03;;;;;;;9.87;6.53;;;14.70;99.90;;;;;;4919236;29;20987;-76
2021/08/26 03:23:31;;;;;;;14.37;8.57;;;14.70;99.90;;;;;;4922448;29;21082;-76
2021/08/26 03:25:59;;;;;;;10.73;6.80;;;14.60;99.90;;;;;;4950323;29;20891;-77
2021/08/26 03:28:27;;;;;;;10.13;5.57;;;14.60;99.90;;;;;;4955441;29;20812;-76
2021/08/26 03:30:55;;;;;;;13.03;9.33;;;14.60;99.90;;;;;;4937923;29;20471;-76
2021/08/26 03:33:23;;;;;;;10.40;7.10;;;14.60;99.90;;;;;;4955535;29;20463;-76
2021/08/26 03:35:53;;;;;;;9.43;7.43;;;14.50;99.90;;;;;;4955516;29;20443;-76
2021/08/26 03:38:21;;;;;;;12.70;8.10;;;14.50;99.90;;;;;;4943206;29;20428;-76
2021/08/26 03:40:49;;;;;;;11.10;5.30;;;14.50;99.90;;;;;;4918785;29;20444;-76
2021/08/26 03:43:18;;;;;;;15.37;6.70;;;14.50;99.90;;;;;;4928742;29;20692;-76
2021/08/26 03:45:48;;;;;;;10.93;7.93;;;14.50;99.90;;;;;;4926897;29;20550;-76
2021/08/26 03:48:17;;;;;;;9.50;5.00;;;14.50;99.90;;;;;;4919038;29;20414;-76
2021/08/26 03:50:45;;;;;;;14.63;5.67;;;14.40;99.90;;;;;;4939035;29;20475;-76
2021/08/26 03:53:14;;;;;;;11.10;6.50;;;14.40;99.90;;;;;;4929315;29;20852;-76
2021/08/26 03:55:44;;;;;;;15.33;6.00;;;14.40;99.90;;;;;;4936297;29;20518;-76
2021/08/26 03:58:12;;;;;;;12.03;8.30;;;14.40;99.90;;;;;;4918794;29;20444;-76
2021/08/26 04:00:40;;;;;;;13.33;7.17;;;14.40;99.90;;;;;;4936138;29;20814;-76
2021/08/26 04:03:08;;;;;;;11.07;7.23;;;14.40;99.90;;;;;;4935716;29;20438;-76
2021/08/26 04:05:36;;;;;;;12.80;6.33;;;14.30;99.90;;;;;;4935763;29;20444;-76
2021/08/26 04:08:05;;;;;;;10.47;6.83;;;14.30;99.90;;;;;;4923551;29;20463;-76
2021/08/26 04:10:35;;;;;;;9.17;6.93;;;14.30;99.90;;;;;;4930057;29;20470;-76
2021/08/26 04:13:03;;;;;;;11.00;6.93;;;14.30;99.90;;;;;;4919230;29;20486;-76
2021/08/26 04:15:31;;;;;;;10.80;4.80;;;14.30;99.90;;;;;;4935695;29;20448;-76
2021/08/26 04:17:59;;;;;;;12.30;6.07;;;14.30;99.90;;;;;;4918632;29;20468;-76
2021/08/26 04:20:27;;;;;;;11.98;4.95;;;14.30;99.90;;;;;;4918675;29;20341;-76
2021/08/26 04:22:55;;;;;;;15.87;7.57;;;14.30;99.90;;;;;;4935943;29;20222;-76
2021/08/26 04:25:24;;;;;;;10.80;7.60;;;14.30;99.90;;;;;;4918736;29;20537;-76
2021/08/26 04:27:53;;;;;;;12.27;7.43;;;14.20;99.90;;;;;;4936465;29;20455;-76
2021/08/26 04:30:21;;;;;;;10.77;6.90;;;14.20;99.90;;;;;;4931824;29;20482;-75
2021/08/26 04:32:50;;;;;;;16.23;5.90;;;14.20;99.90;;;;;;4937837;29;20540;-76
2021/08/26 04:35:19;;;;;;;12.77;7.67;;;14.20;99.90;;;;;;4921538;29;20906;-76
2021/08/26 04:37:47;;;;;;;10.00;7.20;;;14.20;99.90;;;;;;4919688;29;20529;-76
2021/08/26 04:40:15;;;;;;;11.43;6.20;;;14.20;99.90;;;;;;4935009;29;20476;-76
2021/08/26 04:42:43;;;;;;;15.53;6.90;;;14.10;99.90;;;;;;4941065;29;20474;-76
2021/08/26 04:45:13;;;;;;;10.47;7.00;;;14.10;99.90;;;;;;4941094;29;20904;-76
2021/08/26 04:47:41;;;;;;;11.90;6.77;;;14.10;99.90;;;;;;4929799;29;20538;-76
2021/08/26 04:50:10;;;;;;;14.77;5.90;;;14.10;99.90;;;;;;4951980;29;20447;-76
2021/08/26 04:52:38;;;;;;;13.23;6.97;;;14.10;99.90;;;;;;4933711;29;20219;-76
2021/08/26 04:55:07;;;;;;;13.20;5.40;;;14.10;99.90;;;;;;4958351;29;20451;-76
2021/08/26 04:57:35;;;;;;;15.60;9.43;;;14.10;99.90;;;;;;4940489;29;20529;-76
2021/08/26 05:00:05;;;;;;;13.53;6.20;;;14.10;99.90;;;;;;4925476;29;20641;-76
2021/08/26 05:02:35;;;;;;;10.67;6.50;;;14.10;99.90;;;;;;4941997;29;20808;-76
2021/08/26 05:05:06;;;;;;;12.60;7.10;;;14.10;99.90;;;;;;4940436;29;20435;-76
2021/08/26 05:07:34;;;;;;;12.63;7.53;;;14.10;99.90;;;;;;4940649;29;20458;-76
2021/08/26 05:10:02;;;;;;;16.60;7.00;;;14.00;99.90;;;;;;4937546;29;20452;-76
2021/08/26 05:12:30;;;;;;;15.43;8.80;;;14.00;99.90;;;;;;4955885;29;20471;-76
2021/08/26 05:14:59;;;;;;;10.63;5.67;;;14.00;99.90;;;;;;4940550;29;20479;-75
2021/08/26 05:17:27;;;;;;;12.57;6.47;;;14.00;99.90;;;;;;4924395;29;20466;-76
2021/08/26 05:19:56;;;;;;;13.47;7.37;;;14.00;99.90;;;;;;4940424;29;20454;-76
2021/08/26 05:22:24;;;;;;;13.07;6.47;;;14.00;99.90;;;;;;4957501;29;20594;-75
2021/08/26 05:24:53;;;;;;;15.10;7.53;;;14.00;99.90;;;;;;4942533;29;20456;-75
2021/08/26 05:27:21;;;;;;;11.50;6.47;;;14.00;99.90;;;;;;4921442;29;20462;-75
2021/08/26 05:29:49;;;;;;;13.27;7.00;;;14.00;99.90;;;;;;4921365;29;20973;-76
2021/08/26 05:32:20;;;;;;;13.65;5.32;;;14.10;99.90;;;;;;4936747;29;20883;-75
2021/08/26 05:34:49;;;;;;;11.87;5.90;;;14.10;99.90;;;;;;4952250;29;20211;-76
2021/08/26 05:37:18;;;;;;;13.33;6.23;;;14.10;99.90;;;;;;4938416;29;20484;-76
2021/08/26 05:39:46;;;;;;;10.93;7.10;;;14.10;99.90;;;;;;4921079;29;20452;-75
2021/08/26 05:42:14;;;;;;;14.43;7.40;;;14.10;99.90;;;;;;4938019;29;20436;-75
2021/08/26 05:44:42;;;;;;;13.00;8.20;;;14.10;99.90;;;;;;4920870;29;20546;-75
2021/08/26 05:47:11;;;;;;;14.60;6.53;;;14.20;99.90;;;;;;4938280;29;20573;-75
2021/08/26 05:49:39;;;;;;;11.33;7.20;;;14.20;99.90;;;;;;4937920;29;20468;-75
2021/08/26 05:52:07;;;;;;;18.80;8.27;;;14.20;99.90;;;;;;4922415;29;20523;-75
2021/08/26 05:54:36;;;;;;;46.90;9.20;;;14.20;99.90;;;;;;4956476;29;20473;-75
2021/08/26 05:57:05;;;;;;;16.40;7.63;;;14.20;99.90;;;;;;4901854;29;20518;-75
2021/08/26 05:59:33;;;;;;;14.73;6.87;;;14.20;99.90;;;;;;4917511;29;20837;-75
2021/08/26 06:02:01;;;;;;;15.50;5.60;;;14.30;99.90;;;;;;4902300;29;20453;-75
2021/08/26 06:04:30;;;;;;;17.33;7.43;;;14.40;99.90;;;;;;4941613;29;20701;-75
2021/08/26 06:06:58;;;;;;;10.17;5.93;;;14.50;99.90;;;;;;4939677;29;20542;-75
2021/08/26 06:09:26;;;;;;;20.73;11.00;;;14.60;99.90;;;;;;4939695;29;20448;-75
2021/08/26 06:11:56;;;;;;;19.20;6.70;;;14.60;99.90;;;;;;4921304;29;20547;-75
2021/08/26 06:14:24;;;;;;;17.50;8.57;;;14.70;99.90;;;;;;4923366;29;21054;-75
2021/08/26 06:16:54;;;;;;;17.57;8.27;;;14.70;99.90;;;;;;4927139;29;20434;-75
2021/08/26 06:19:22;;;;;;;15.43;8.07;;;14.70;99.90;;;;;;4937732;29;20543;-75
2021/08/26 06:21:50;;;;;;;17.57;8.93;;;14.80;99.90;;;;;;4920732;29;20820;-75
2021/08/26 06:24:18;;;;;;;17.70;8.27;;;14.80;99.90;;;;;;4937235;29;20808;-75
2021/08/26 06:26:47;;;;;;;14.43;8.73;;;14.90;99.90;;;;;;4920436;29;21015;-75
2021/08/26 06:29:16;;;;;;;19.07;9.40;;;15.00;99.90;;;;;;4920382;29;20799;-75
2021/08/26 06:31:47;;;;;;;15.50;7.10;;;15.00;99.90;;;;;;4920063;29;20458;-75
2021/08/26 06:34:15;;;;;;;27.17;12.03;;;15.10;99.90;;;;;;4925428;29;20474;-75
2021/08/26 06:36:44;;;;;;;12.75;6.68;;;15.20;99.90;;;;;;4938978;29;20455;-75
2021/08/26 06:39:15;;;;;;;14.23;8.40;;;15.20;99.90;;;;;;4923203;29;20733;-75
2021/08/26 06:41:44;;;;;;;17.60;11.70;;;15.30;99.90;;;;;;4937384;29;20433;-75
2021/08/26 06:44:12;;;;;;;18.40;9.70;;;15.30;99.90;;;;;;4919962;29;20558;-75
2021/08/26 06:46:41;;;;;;;11.53;7.80;;;15.40;99.90;;;;;;4920052;29;20430;-75
2021/08/26 06:49:44;;;;;;;28.93;13.50;;;15.50;99.90;;;;;;4944268;29;20446;-75
2021/08/26 06:52:12;;;;;;;20.53;11.33;;;15.60;99.90;;;;;;4952204;29;20463;-75
2021/08/26 06:54:43;;;;;;;21.97;10.77;;;15.70;99.90;;;;;;4938842;29;20546;-75
2021/08/26 06:57:11;;;;;;;23.07;12.43;;;15.70;99.90;;;;;;4939024;29;20494;-75
2021/08/26 06:59:40;;;;;;;30.03;13.83;;;15.80;99.90;;;;;;4933917;29;20819;-75
2021/08/26 07:02:09;;;;;;;20.57;11.20;;;15.90;99.90;;;;;;4934672;29;20466;-75
2021/08/26 07:04:38;;;;;;;21.10;12.00;;;16.00;99.90;;;;;;4938439;29;20529;-74
2021/08/26 07:07:08;;;;;;;17.37;12.60;;;16.00;99.90;;;;;;4955826;29;20951;-75
2021/08/26 07:09:36;;;;;;;39.63;17.67;;;16.10;99.90;;;;;;4924473;29;20536;-75
2021/08/26 07:12:05;;;;;;;19.52;9.27;;;16.10;99.90;;;;;;4919129;29;20989;-74
2021/08/26 07:14:33;;;;;;;21.33;13.23;;;16.10;99.90;;;;;;4936388;29;20259;-75
2021/08/26 07:17:01;;;;;;;31.03;14.50;;;16.10;99.90;;;;;;4919301;29;20474;-75
2021/08/26 07:19:31;;;;;;;16.63;6.23;;;16.10;99.90;;;;;;4937494;29;20449;-75
2021/08/26 07:21:59;;;;;;;17.30;9.83;;;16.30;99.90;;;;;;4942982;29;20447;-75
2021/08/26 07:24:27;;;;;;;18.67;9.73;;;16.30;99.90;;;;;;4946626;29;20441;-75
2021/08/26 07:26:55;;;;;;;24.67;12.73;;;16.30;99.90;;;;;;4936298;29;20444;-75
2021/08/26 07:29:24;;;;;;;20.40;12.30;;;16.30;99.90;;;;;;4923589;29;20437;-75
2021/08/26 07:31:52;;;;;;;25.97;15.63;;;16.30;99.90;;;;;;4938390;29;20529;-75
2021/08/26 07:34:20;;;;;;;19.53;12.30;;;16.30;99.90;;;;;;4936577;29;20556;-75
2021/08/26 07:36:52;;;;;;;24.20;15.63;;;16.30;99.90;;;;;;4936881;29;20826;-74
2021/08/26 07:39:20;;;;;;;25.93;14.03;;;16.40;99.90;;;;;;4919519;29;20440;-75
2021/08/26 07:41:48;;;;;;;20.33;11.37;;;16.30;99.90;;;;;;4931496;29;20430;-75
2021/08/26 07:44:19;;;;;;;27.17;14.53;;;16.40;99.90;;;;;;4938313;29;20855;-75
2021/08/26 07:46:47;;;;;;;28.45;11.40;;;16.40;99.90;;;;;;4938532;29;20486;-75
2021/08/26 07:49:15;;;;;;;27.83;13.50;;;16.40;99.90;;;;;;4938557;29;20621;-75
2021/08/26 07:51:43;;;;;;;20.87;13.53;;;16.50;99.90;;;;;;4925417;29;20481;-75
2021/08/26 07:54:13;;;;;;;17.05;7.20;;;16.60;99.90;;;;;;4918042;29;20476;-75
2021/08/26 07:56:41;;;;;;;16.10;10.47;;;16.80;99.90;;;;;;4936285;29;20287;-74
2021/08/26 07:59:09;;;;;;;23.43;14.33;;;16.90;99.90;;;;;;4919176;29;20452;-75
2021/08/26 08:01:37;;;;;;;15.27;10.83;;;17.00;99.90;;;;;;4919359;29;20949;-75
2021/08/26 08:04:06;;;;;;;25.27;15.90;;;17.10;99.90;;;;;;4919067;29;20490;-75
2021/08/26 08:06:34;;;;;;;28.60;16.73;;;17.10;99.90;;;;;;4953085;29;20486;-75
2021/08/26 08:09:02;;;;;;;36.57;13.70;;;17.10;99.90;;;;;;4938311;29;20796;-75
2021/08/26 08:11:32;;;;;;;33.97;16.00;;;17.20;99.90;;;;;;4923223;29;20876;-75
2021/08/26 08:14:03;;;;;;;37.03;16.70;;;17.20;99.90;;;;;;4938014;29;20486;-75
2021/08/26 08:16:33;;;;;;;32.43;14.73;;;17.30;99.90;;;;;;4958989;29;20478;-75
2021/08/26 08:19:01;;;;;;;76.10;18.70;;;17.30;99.90;;;;;;4959320;29;20425;-75
2021/08/26 08:21:29;;;;;;;19.42;8.82;;;17.40;99.90;;;;;;4940406;29;20965;-75
2021/08/26 08:23:57;;;;;;;23.30;11.23;;;17.50;99.90;;;;;;4922549;29;20266;-75
2021/08/26 08:26:25;;;;;;;25.40;15.73;;;17.60;99.90;;;;;;4922545;29;20459;-75
2021/08/26 08:28:55;;;;;;;18.67;6.22;;;17.70;99.90;;;;;;4926095;29;20433;-74
2021/08/26 08:31:23;;;;;;;18.93;9.23;;;17.80;99.90;;;;;;4959245;29;20192;-75
2021/08/26 08:33:52;;;;;;;21.90;13.40;;;17.90;99.90;;;;;;4943975;29;20574;-75
2021/08/26 08:36:21;;;;;;;25.53;13.97;;;17.90;99.90;;;;;;4939370;29;20443;-75
2021/08/26 08:38:49;;;;;;;28.13;13.30;;;17.90;99.90;;;;;;4922217;29;20458;-75
2021/08/26 08:41:19;;;;;;;30.00;18.30;;;18.00;99.90;;;;;;4939449;29;20526;-76
2021/08/26 08:43:48;;;;;;;36.27;19.40;;;18.00;99.90;;;;;;4922049;29;20527;-75
2021/08/26 08:46:19;;;;;;;40.77;17.43;;;18.00;99.90;;;;;;4922064;29;20538;-76
2021/08/26 08:48:48;;;;;;;39.00;15.30;;;18.10;99.90;;;;;;4922418;29;20469;-76
2021/08/26 08:51:16;;;;;;;38.47;20.00;;;18.10;99.90;;;;;;4939143;29;20440;-76
2021/08/26 08:56:35;;;;;;;13.17;6.30;;;18.20;99.90;;;;;;4958304;29;20502;-78
2021/08/26 08:59:04;;;;;;;16.10;10.90;;;18.30;99.90;;;;;;4961295;29;20454;-78
2021/08/26 09:01:34;;;;;;;15.55;6.50;;;18.30;99.90;;;;;;4947875;29;20457;-78
2021/08/26 09:04:03;;;;;;;19.73;11.10;;;18.30;99.90;;;;;;4957946;29;20219;-78
2021/08/26 09:06:41;;;;;;;22.37;15.17;;;18.40;99.90;;;;;;4955714;29;20443;-78
2021/08/26 09:09:11;;;;;;;38.47;13.60;;;18.40;99.90;;;;;;4958180;29;20537;-78
2021/08/26 09:11:49;;;;;;;28.77;12.97;;;18.40;99.90;;;;;;4947252;29;20484;-78
2021/08/26 09:14:18;;;;;;;26.13;16.20;;;18.30;99.90;;;;;;4944099;29;20478;-78
2021/08/26 09:16:50;;;;;;;27.03;14.43;;;18.30;99.90;;;;;;4949865;29;20450;-78
2021/08/26 09:19:21;;;;;;;43.77;13.73;;;18.30;99.90;;;;;;4976114;29;20455;-79
2021/08/26 09:21:49;;;;;;;31.87;14.73;;;18.40;99.90;;;;;;4976745;29;20450;-78
2021/08/26 09:24:18;;;;;;;60.37;20.03;;;18.50;99.90;;;;;;4970931;28;20988;-78
2021/08/26 09:26:48;;;;;;;31.97;15.77;;;18.60;99.90;;;;;;4947963;29;20460;-78
2021/08/26 09:29:16;;;;;;;9.38;3.05;;;18.70;99.90;;;;;;4950197;29;20444;-77
2021/08/26 09:31:47;;;;;;;16.63;10.23;;;18.90;99.90;;;;;;4962578;28;20195;-79
2021/08/26 09:34:17;;;;;;;57.70;20.80;;;19.00;99.90;;;;;;4956299;29;20511;-79
2021/08/26 09:36:54;;;;;;;81.13;18.87;;;19.10;99.90;;;;;;4957268;29;20444;-78
2021/08/26 09:39:24;;;;;;;64.50;17.13;;;19.20;99.90;;;;;;4957925;29;20893;-78
2021/08/26 09:41:54;;;;;;;81.07;21.43;;;19.20;99.90;;;;;;4949311;29;20458;-78
2021/08/26 09:44:25;;;;;;;79.87;20.07;;;19.30;99.90;;;;;;4949786;29;20534;-77
2021/08/26 09:46:57;;;;;;;73.47;17.87;;;19.40;99.90;;;;;;4963552;29;20447;-78
2021/08/26 09:49:26;;;;;;;119.07;32.50;;;19.50;99.90;;;;;;4956876;29;20443;-77
2021/08/26 09:52:06;;;;;;;92.30;22.63;;;19.60;99.90;;;;;;4955844;29;20545;-78
2021/08/26 09:54:38;;;;;;;103.97;27.57;;;19.70;99.90;;;;;;4957461;29;20482;-78
2021/08/26 09:57:08;;;;;;;81.37;24.53;;;19.80;99.90;;;;;;4938717;29;20554;-77
2021/08/26 09:59:44;;;;;;;76.73;31.37;;;19.80;99.90;;;;;;4946771;29;20553;-78
2021/08/26 10:02:15;;;;;;;2.90;1.50;;;19.80;99.90;;;;;;4938282;29;20467;-77
2021/08/26 10:04:44;;;;;;;74.13;25.07;;;19.80;99.90;;;;;;4954990;29;20467;-78
2021/08/26 10:07:13;;;;;;;6.65;2.25;;;19.80;99.90;;;;;;4959048;29;20828;-79
2021/08/26 10:09:42;;;;;;;62.57;21.20;;;19.80;99.90;;;;;;4959050;29;20208;-78
2021/08/26 10:12:13;;;;;;;64.03;24.80;;;19.80;99.90;;;;;;4938452;29;20463;-77
2021/08/26 10:14:43;;;;;;;67.87;29.07;;;19.80;99.90;;;;;;4955252;29;20514;-78
2021/08/26 10:17:12;;;;;;;130.57;33.93;;;19.80;99.90;;;;;;4953192;29;20562;-77
2021/08/26 10:19:42;;;;;;;63.43;22.83;;;19.80;99.90;;;;;;4946221;29;20458;-78
2021/08/26 10:22:11;;;;;;;88.20;34.23;;;19.80;99.90;;;;;;4957365;28;20447;-78
2021/08/26 10:24:40;;;;;;;81.37;25.27;;;19.80;99.90;;;;;;4956153;29;20525;-77
2021/08/26 10:27:10;;;;;;;86.90;22.00;;;19.70;99.90;;;;;;4957524;29;20471;-77
2021/08/26 10:29:43;;;;;;;73.90;23.73;;;19.70;99.90;;;;;;4957640;29;20423;-78
2021/08/26 10:32:16;;;;;;;78.60;20.57;;;19.70;99.90;;;;;;4956814;29;20894;-78
2021/08/26 10:35:08;;;;;;;52.70;22.37;;;19.70;99.90;;;;;;4954311;28;21051;-77
2021/08/26 10:37:50;;;;;;;99.27;30.90;;;19.70;99.90;;;;;;4951788;29;20557;-77
2021/08/26 10:40:37;;;;;;;96.67;32.30;;;19.80;99.90;;;;;;4957054;29;20462;-77
2021/08/26 10:43:06;;;;;;;77.97;29.40;;;19.80;99.90;;;;;;4958327;28;20535;-78
2021/08/26 10:45:49;;;;;;;141.70;34.30;;;19.90;99.90;;;;;;4957215;29;20449;-78
2021/08/26 10:48:21;;;;;;;99.73;32.03;;;20.00;99.90;;;;;;4957565;29;20459;-79
2021/08/26 10:51:11;;;;;;;151.90;32.63;;;20.10;99.90;;;;;;4939118;29;20468;-78
2021/08/26 10:53:41;;;;;;;67.67;30.27;;;20.10;99.90;;;;;;4940523;29;21059;-77
2021/08/26 10:56:23;;;;;;;99.50;31.37;;;20.10;99.90;;;;;;4919778;29;20846;-79
2021/08/26 10:58:52;;;;;;;96.90;28.80;;;20.10;99.90;;;;;;4920976;29;20950;-79
2021/08/26 11:01:38;;;;;;;97.33;37.73;;;20.20;99.90;;;;;;4928571;29;20529;-77
2021/08/26 11:04:17;;;;;;;14.10;7.53;;;20.20;99.90;;;;;;4959636;29;20448;-78
2021/08/26 11:06:48;;;;;;;92.87;29.63;;;20.20;99.90;;;;;;4957213;29;20218;-78
2021/08/26 11:09:31;;;;;;;106.50;35.57;;;20.20;99.90;;;;;;4959053;28;20502;-77
2021/08/26 11:12:04;;;;;;;60.00;30.33;;;20.20;99.90;;;;;;4958578;29;20944;-78
2021/08/26 11:14:35;;;;;;;132.87;33.23;;;20.20;99.90;;;;;;4958008;29;20489;-78
2021/08/26 11:17:05;;;;;;;108.50;30.30;;;20.10;99.90;;;;;;4957303;29;20461;-79
2021/08/26 11:19:38;;;;;;;83.70;26.37;;;20.00;99.90;;;;;;4946563;29;20459;-78
2021/08/26 11:22:10;;;;;;;95.07;29.47;;;19.90;99.90;;;;;;4939555;29;20976;-78
2021/08/26 11:24:56;;;;;;;71.97;31.20;;;19.80;99.90;;;;;;4932981;29;20522;-78
2021/08/26 11:27:27;;;;;;;84.03;33.97;;;19.80;99.90;;;;;;4942783;29;20468;-78
2021/08/26 11:29:58;;;;;;;94.87;37.53;;;19.90;99.90;;;;;;4938598;29;20550;-78
2021/08/26 11:32:26;;;;;;;84.27;32.67;;;19.90;99.90;;;;;;4937682;29;20460;-79
2021/08/26 11:34:57;;;;;;;36.45;17.10;;;19.90;99.90;;;;;;4939525;29;20457;-78
2021/08/26 11:37:29;;;;;;;80.73;32.50;;;19.90;99.60;;;;;;4938026;29;20196;-78
2021/08/26 11:40:00;;;;;;;101.07;35.03;;;19.90;99.70;;;;;;4938873;29;20455;-79
2021/08/26 11:42:32;;;;;;;4.70;4.30;;;19.90;99.80;;;;;;4917634;29;20470;-77
2021/08/26 11:45:23;;;;;;;94.43;31.07;;;20.00;99.20;;;;;;4919313;29;20619;-78
2021/08/26 11:47:54;;;;;;;121.73;31.40;;;20.00;99.40;;;;;;4946119;28;20501;-78
2021/08/26 11:50:25;;;;;;;123.77;30.20;;;20.00;99.50;;;;;;4955998;29;20521;-77
2021/08/26 11:52:56;;;;;;;66.90;30.47;;;19.90;99.30;;;;;;4951642;29;20589;-79
2021/08/26 11:55:34;;;;;;;115.73;38.93;;;19.90;99.10;;;;;;4954658;29;20517;-78
2021/08/26 11:58:04;;;;;;;110.97;43.37;;;19.90;99.00;;;;;;4957406;29;20457;-78
2021/08/26 12:00:33;;;;;;;91.20;34.57;;;19.90;98.80;;;;;;4958769;29;20959;-78
2021/08/26 12:03:02;;;;;;;112.47;42.03;;;19.90;98.80;;;;;;4949628;29;20475;-79
2021/08/26 12:05:31;;;;;;;61.75;19.92;;;19.90;98.80;;;;;;4955360;29;20917;-78
2021/08/26 12:08:06;;;;;;;123.20;40.27;;;19.90;97.90;;;;;;4959200;29;20206;-79
2021/08/26 12:10:39;;;;;;;121.13;39.67;;;19.90;97.80;;;;;;4959015;29;20450;-79
2021/08/26 12:13:09;;;;;;;13.30;12.63;;;19.90;97.80;;;;;;4955856;29;20518;-78
2021/08/26 12:15:41;;;;;;;91.60;26.23;;;20.00;96.70;;;;;;4958486;29;20211;-79
2021/08/26 12:18:11;;;;;;;225.97;41.50;;;20.10;96.70;;;;;;4959150;28;20438;-79
2021/08/26 12:20:44;;;;;;;97.67;35.37;;;20.00;96.90;;;;;;4942362;29;20467;-79
2021/08/26 12:23:17;;;;;;;103.47;36.67;;;20.00;97.00;;;;;;4938748;29;20531;-78
2021/08/26 12:26:03;;;;;;;110.73;41.17;;;20.00;97.20;;;;;;4936769;29;20502;-78
2021/08/26 12:28:32;;;;;;;130.00;42.43;;;20.10;97.10;;;;;;4937763;29;20535;-78
2021/08/26 12:31:00;;;;;;;105.53;36.50;;;20.00;97.00;;;;;;4937693;29;20460;-78
2021/08/26 12:33:28;;;;;;;90.97;39.57;;;20.00;97.10;;;;;;4938842;29;20815;-78
2021/08/26 12:35:58;;;;;;;37.80;19.13;;;20.00;97.10;;;;;;4939095;29;20537;-79
2021/08/26 12:38:41;;;;;;;103.03;32.77;;;20.00;96.90;;;;;;4938920;29;20542;-78
2021/08/26 12:41:15;;;;;;;119.30;28.57;;;20.00;96.90;;;;;;4949903;29;21030;-78
2021/08/26 12:43:47;;;;;;;8.52;7.82;;;20.00;97.00;;;;;;4954014;29;20452;-77
2021/08/26 12:46:19;;;;;;;114.53;39.83;;;20.10;96.30;;;;;;4955416;29;20196;-78
2021/08/26 12:48:48;;;;;;;46.27;33.10;;;20.10;96.60;;;;;;4955881;29;20455;-78
2021/08/26 12:51:23;;;;;;;113.33;41.57;;;20.00;96.90;;;;;;4945526;28;20495;-78
2021/08/26 12:54:15;;;;;;;65.77;30.50;;;20.00;96.90;;;;;;4938498;29;20463;-78
2021/08/26 12:56:47;;;;;;;215.47;43.47;;;19.90;96.90;;;;;;4938409;29;20530;-78
2021/08/26 12:59:16;;;;;;;108.00;41.80;;;19.90;97.10;;;;;;4937059;29;20491;-77
2021/08/26 13:01:48;;;;;;;99.67;38.60;;;19.80;97.20;;;;;;4939836;29;20451;-77
2021/08/26 13:04:20;;;;;;;91.13;31.83;;;19.70;97.20;;;;;;4939026;29;20829;-77
2021/08/26 13:06:50;;;;;;;9.02;8.43;;;19.60;97.30;;;;;;4938863;29;20450;-77
2021/08/26 13:09:34;;;;;;;117.23;32.60;;;19.60;96.90;;;;;;4940818;29;20204;-78
2021/08/26 13:12:05;;;;;;;73.63;24.02;;;19.60;96.70;;;;;;4936308;29;20458;-78
2021/08/26 13:14:36;;;;;;;68.17;31.33;;;19.50;96.80;;;;;;4938473;29;20318;-77
2021/08/26 13:17:10;;;;;;;122.23;31.33;;;19.50;96.90;;;;;;4958754;29;20467;-78
2021/08/26 13:19:39;;;;;;;70.87;34.30;;;19.60;97.00;;;;;;4960712;29;20506;-78
2021/08/26 13:22:18;;;;;;;111.70;36.03;;;19.70;97.10;;;;;;4960518;29;20462;-78
2021/08/26 13:24:48;;;;;;;145.73;38.00;;;19.80;97.00;;;;;;4959417;29;20446;-78
2021/08/26 13:27:17;;;;;;;90.37;33.10;;;19.80;97.10;;;;;;4938958;29;20535;-77
2021/08/26 13:29:46;;;;;;;97.83;35.67;;;19.90;97.30;;;;;;4939133;29;20443;-78
2021/08/26 13:32:15;;;;;;;66.07;35.20;;;20.00;97.20;;;;;;4940893;29;20455;-78
2021/08/26 13:34:44;;;;;;;83.67;35.43;;;20.00;96.80;;;;;;4939730;29;20472;-78